Terminal Aerodrome Forecast
Issued by NWS

Home | Current Version | Previous Version | Text Only | Print | Product List | Glossary On
Versions: 1 2 3 4 5 6 7 8 9 10 11 12 13 14
198
FTUS45 KVEF 200539
TAFDAG
TAF
KDAG 200539Z 2006/2106 26010KT P6SM SCT050 SCT080 BKN150
     FM201600 23015G25KT P6SM -SHRA BKN030 OVC050
     FM210100 24025G35KT P6SM VCSH BKN050=

USA.gov is the U.S. government's official web portal to all federal, state and local government web resources and services.